Aeroporto :
LOGIN :

Iscrizione | Disclaimer

   EN    FR    IT 

 










Sommario :    VFR   VFR Marginale   IFR   IFR Intensivo   IFR Molto Intensivo
Visibilità : 
Base nubi : 
>= 8 km
>= 3000ft
5 / 8 km
1000 / 3000 ft
1500m / 5 km
500 / 1000 ft
800 / 1500m
200 / 500 ft
< 800m
< 200 ft
Simboli :   Temporali  Nebbia  Neve Forte  Precipitazioni Forti  Vento > 20 kt
SIGMETs :   Varie  Temporali  Ghiacco  Turbolenza  Onda orograficha  Ceneri Vulcaniche






- Altitudine del aeroporto : 179 ft


LIPI - Rivolto AFB Udine

METARs OBSOLETI :
  • 151055Z 10009KT 7000 -RA FEW017 SCT020 BKN030 15/13 Q1005 RMK OVC VIS MIN 7000 WIND THR06 14010KT WIND THR24 12010KT WHT
  • 150955Z 17006KT 9999 VCTS SCT020 FEW025CB SCT030 14/12 Q1005 RETS RMK OVC VIS MIN 9999 WIND THR06 15008KT WIND THR24 11009KT BLU
  • 150937Z 06011KT 9999 TS SCT015 SCT025CB 13/11 Q1005 RMK OVC VIS MIN 9999 WIND THR06 10006KT WIND THR24 096008KT BLU

TAF TAF LIPI
Valido dal 15 a 09 ore il 15 a 18 ore UTC


150800Z 1509/1518 08012KT 9999 SCT020 BKN030
TEMPO 1509/1518 6000 RA
PROB40
TEMPO 1509/1518 2500 TSRA FEW020CB BKN025



MetMap, La meteo Aeronautica in un colpo d'occhio ! - Copyright ORBIFLY Dicembre 2007 - Disclaimer

ORBIFLY MET'MAP TEAM :

Programmazione e sviluppo : Alexandra Zaïnal
Concezione e sviluppo : Baudouin d'Aumeries
Co-Programmazione e sviluppo : Marc-Olivier Méhu
Supporto tecnico e logistico : Manuel Goepfert
Aiuto per la traduzione : Arnaldo La Scala

Contatto : metmap@orbifly.com




FONTI E CREDITI :

   NOAA